createdAt,value
2022-12-18T00:01:39.639Z,13.82
2022-12-18T00:04:41.256Z,14.47
2022-12-18T00:07:42.769Z,14.20
2022-12-18T00:10:45.057Z,13.32
2022-12-18T00:13:47.479Z,12.80
2022-12-18T00:16:49.063Z,13.40
2022-12-18T00:19:50.616Z,12.85
2022-12-18T00:22:56.307Z,12.30
2022-12-18T00:26:02.308Z,13.23
2022-12-18T00:29:14.757Z,12.32
2022-12-18T00:32:18.524Z,12.20
2022-12-18T00:35:20.383Z,11.33
2022-12-18T00:38:21.929Z,11.60
2022-12-18T00:41:45.231Z,11.57
2022-12-18T00:44:46.750Z,12.23
2022-12-18T00:47:48.629Z,12.98
2022-12-18T00:50:50.804Z,11.50
2022-12-18T00:53:52.450Z,10.45
2022-12-18T00:56:54.113Z,10.87
2022-12-18T00:59:55.706Z,11.88
2022-12-18T01:02:57.369Z,11.63
2022-12-18T01:06:00.208Z,11.20
2022-12-18T01:09:03.129Z,11.98
2022-12-18T01:12:05.066Z,11.73
2022-12-18T01:15:07.704Z,11.52
2022-12-18T01:18:09.300Z,11.40
2022-12-18T01:21:14.256Z,13.25
2022-12-18T01:24:15.877Z,12.07
2022-12-18T01:27:17.452Z,11.13
2022-12-18T01:30:19.017Z,11.95
2022-12-18T01:33:20.676Z,12.68
2022-12-18T01:36:25.931Z,12.03
2022-12-18T01:39:27.462Z,12.18
2022-12-18T01:42:29.046Z,12.43
2022-12-18T01:45:32.848Z,11.90
2022-12-18T01:48:34.584Z,11.68
2022-12-18T01:51:36.164Z,11.27
2022-12-18T01:54:37.735Z,12.30
2022-12-18T01:57:40.750Z,12.67
2022-12-18T02:00:42.831Z,12.57
2022-12-18T02:03:45.094Z,11.68
2022-12-18T02:06:51.549Z,11.17
2022-12-18T02:10:03.136Z,11.88
2022-12-18T02:13:37.240Z,11.95
2022-12-18T02:16:42.092Z,11.95
2022-12-18T02:20:32.735Z,10.48
2022-12-18T02:23:51.726Z,12.20
2022-12-18T02:27:00.419Z,10.93
2022-12-18T02:30:06.530Z,11.17
2022-12-18T02:33:12.274Z,9.85
2022-12-18T02:36:17.454Z,11.02
2022-12-18T02:39:22.041Z,11.73
2022-12-18T02:42:42.237Z,11.20
2022-12-18T02:45:53.352Z,11.90
2022-12-18T02:49:06.210Z,11.20
2022-12-18T02:52:41.260Z,9.82
2022-12-18T02:55:56.596Z,9.60
2022-12-18T02:59:03.244Z,10.27
2022-12-18T03:02:23.793Z,11.10
2022-12-18T03:05:37.169Z,10.48
2022-12-18T03:08:43.520Z,9.90
2022-12-18T03:12:09.773Z,9.47
2022-12-18T03:15:23.432Z,10.70
2022-12-18T03:18:38.797Z,10.27
2022-12-18T03:21:52.698Z,9.10
2022-12-18T03:24:56.986Z,9.13
2022-12-18T03:28:03.125Z,9.82
2022-12-18T03:31:09.609Z,9.40
2022-12-18T03:34:19.027Z,8.87
2022-12-18T03:37:22.175Z,8.32
2022-12-18T03:40:32.504Z,8.85
2022-12-18T03:43:59.084Z,8.60
2022-12-18T03:47:19.520Z,8.63
2022-12-18T03:50:47.117Z,8.85
2022-12-18T03:53:56.656Z,9.38
2022-12-18T03:57:34.127Z,8.55
2022-12-18T04:00:36.685Z,9.40
2022-12-18T04:03:45.835Z,8.82
2022-12-18T04:06:49.858Z,8.80
2022-12-18T04:09:57.469Z,8.98
2022-12-18T04:12:59.932Z,9.50
2022-12-18T04:16:02.955Z,8.50
2022-12-18T04:19:05.213Z,9.63
2022-12-18T04:22:13.996Z,9.40
2022-12-18T04:25:20.697Z,9.25
2022-12-18T04:28:31.627Z,9.25
2022-12-18T04:31:33.822Z,9.98
2022-12-18T04:34:35.517Z,9.70
2022-12-18T04:37:37.442Z,9.63
2022-12-18T04:40:40.215Z,9.35
2022-12-18T04:43:50.530Z,9.95
2022-12-18T04:46:52.102Z,10.50
2022-12-18T04:49:53.691Z,9.13
2022-12-18T04:52:55.278Z,10.50
2022-12-18T04:56:11.342Z,9.98
2022-12-18T04:59:13.240Z,9.35
2022-12-18T05:02:14.909Z,8.77
2022-12-18T05:05:16.820Z,10.80
2022-12-18T05:08:18.773Z,9.70
2022-12-18T05:11:21.852Z,9.63
2022-12-18T05:14:23.981Z,9.88
2022-12-18T05:17:25.556Z,10.13
2022-12-18T05:20:28.270Z,9.35
2022-12-18T05:23:30.296Z,10.38
2022-12-18T05:26:31.929Z,9.35
2022-12-18T05:29:33.506Z,9.07
2022-12-18T05:32:35.100Z,10.13
2022-12-18T05:35:36.620Z,9.88
2022-12-18T05:38:40.000Z,9.53
2022-12-18T05:41:41.574Z,9.23
2022-12-18T05:44:44.410Z,8.80
2022-12-18T05:47:45.954Z,9.53
2022-12-18T05:50:48.736Z,9.43
2022-12-18T05:53:50.332Z,9.63
2022-12-18T05:56:51.959Z,10.63
2022-12-18T05:59:53.576Z,8.88
2022-12-18T06:02:55.443Z,10.07
2022-12-18T06:05:57.104Z,9.50
2022-12-18T06:08:58.891Z,10.07
2022-12-18T06:12:00.486Z,8.43
2022-12-18T06:15:02.437Z,9.55
2022-12-18T06:18:04.522Z,8.70
2022-12-18T06:21:06.217Z,9.65
2022-12-18T06:24:07.927Z,9.98
2022-12-18T06:27:09.491Z,8.55
2022-12-18T06:30:12.098Z,8.85
2022-12-18T06:33:14.497Z,9.27
2022-12-18T06:36:16.834Z,9.52
2022-12-18T06:39:18.426Z,8.80
2022-12-18T06:42:19.975Z,9.35
2022-12-18T06:45:21.730Z,8.90
2022-12-18T06:48:23.439Z,10.10
2022-12-18T06:51:25.903Z,9.95
2022-12-18T06:54:27.415Z,9.98
2022-12-18T06:57:29.004Z,9.95
2022-12-18T07:00:30.725Z,10.10
2022-12-18T07:03:32.809Z,9.90
2022-12-18T07:06:34.391Z,9.27
2022-12-18T07:09:36.068Z,8.60
2022-12-18T07:12:37.683Z,9.05
2022-12-18T07:15:39.222Z,8.27
2022-12-18T07:18:40.820Z,8.90
2022-12-18T07:21:42.376Z,7.60
2022-12-18T07:24:44.203Z,9.45
2022-12-18T07:27:45.728Z,9.95
2022-12-18T07:30:47.240Z,8.75
2022-12-18T07:33:49.779Z,8.85
2022-12-18T07:36:51.436Z,10.52
2022-12-18T07:39:53.036Z,10.07
2022-12-18T07:42:54.664Z,8.45
2022-12-18T07:45:56.324Z,9.02
2022-12-18T07:48:57.915Z,9.13
2022-12-18T07:51:59.612Z,8.45
2022-12-18T07:55:01.550Z,9.57
2022-12-18T07:58:05.619Z,8.57
2022-12-18T08:01:16.994Z,9.40
2022-12-18T08:04:18.939Z,9.23
2022-12-18T08:07:20.493Z,9.15
2022-12-18T08:10:23.080Z,8.53
2022-12-18T08:13:26.191Z,10.00
2022-12-18T08:16:36.392Z,9.68
2022-12-18T08:19:38.146Z,9.40
2022-12-18T08:22:40.055Z,8.60
2022-12-18T08:25:41.722Z,8.95
2022-12-18T08:28:50.418Z,10.00
2022-12-18T08:31:52.666Z,10.45
2022-12-18T08:35:00.747Z,9.00
2022-12-18T08:38:10.925Z,9.18
2022-12-18T08:41:18.139Z,9.93
2022-12-18T08:44:39.422Z,8.38
2022-12-18T08:47:46.971Z,9.45
2022-12-18T08:51:00.590Z,10.53
2022-12-18T08:54:09.402Z,8.52
2022-12-18T08:57:11.675Z,9.73
2022-12-18T09:00:14.325Z,9.10
2022-12-18T09:03:24.771Z,9.77
2022-12-18T09:06:31.756Z,9.65
2022-12-18T09:09:33.843Z,8.70
2022-12-18T09:12:35.582Z,8.23
2022-12-18T09:15:48.810Z,9.30
2022-12-18T09:18:50.391Z,9.35
2022-12-18T09:21:52.123Z,9.87
2022-12-18T09:24:53.870Z,9.80
2022-12-18T09:27:55.610Z,9.85
2022-12-18T09:31:06.462Z,10.15
2022-12-18T09:34:16.492Z,10.52
2022-12-18T09:37:18.332Z,10.80
2022-12-18T09:40:27.814Z,13.23
2022-12-18T09:44:08.045Z,12.77
2022-12-18T09:47:21.561Z,11.10
2022-12-18T09:50:32.846Z,12.80
2022-12-18T09:53:40.447Z,10.37
2022-12-18T09:56:44.368Z,11.18
2022-12-18T09:59:58.182Z,10.88
2022-12-18T10:03:15.975Z,11.15
2022-12-18T10:06:22.158Z,11.27
2022-12-18T10:09:59.327Z,11.02
2022-12-18T10:13:15.102Z,11.20
2022-12-18T10:16:53.842Z,10.87
2022-12-18T10:20:16.721Z,9.85
2022-12-18T10:23:27.253Z,9.68
2022-12-18T10:26:28.880Z,10.17
2022-12-18T10:29:30.644Z,10.60
2022-12-18T10:32:32.244Z,10.38
2022-12-18T10:35:34.494Z,10.32
2022-12-18T10:38:36.274Z,10.95
2022-12-18T10:41:37.833Z,11.88
2022-12-18T10:44:39.623Z,10.40
2022-12-18T10:47:50.812Z,9.17
2022-12-18T10:54:23.945Z,9.45
2022-12-18T10:57:38.071Z,10.03
2022-12-18T11:00:39.677Z,11.20
2022-12-18T11:03:47.759Z,10.35
2022-12-18T11:06:58.287Z,9.90
2022-12-18T11:10:02.971Z,11.20
2022-12-18T11:13:23.189Z,11.00
2022-12-18T11:16:24.961Z,10.18
2022-12-18T11:19:35.500Z,11.07
2022-12-18T11:22:39.181Z,22.33
2022-12-18T11:25:51.113Z,11.57
2022-12-18T11:29:10.851Z,10.70
2022-12-18T11:32:31.268Z,10.23
2022-12-18T11:35:51.533Z,10.30
2022-12-18T11:38:56.504Z,10.48
2022-12-18T11:42:25.281Z,10.00
2022-12-18T11:45:34.160Z,10.02
2022-12-18T11:48:50.909Z,10.38
2022-12-18T11:52:15.806Z,10.87
2022-12-18T11:55:28.744Z,9.95
2022-12-18T11:58:58.598Z,11.10
2022-12-18T12:02:18.223Z,8.93
2022-12-18T12:06:04.999Z,8.88
2022-12-18T12:09:27.953Z,10.30
2022-12-18T12:12:48.636Z,10.32
2022-12-18T12:16:17.895Z,10.23
2022-12-18T12:19:35.720Z,11.88
2022-12-18T12:23:17.775Z,10.35
2022-12-18T12:26:37.326Z,10.03
2022-12-18T12:29:52.131Z,10.93
2022-12-18T12:33:01.174Z,12.60
2022-12-18T12:36:14.128Z,10.23
2022-12-18T12:39:22.610Z,9.07
2022-12-18T12:43:00.791Z,9.88
2022-12-18T12:46:10.472Z,9.77
2022-12-18T12:49:18.332Z,9.60
2022-12-18T12:52:34.811Z,10.70
2022-12-18T12:55:36.816Z,9.75
2022-12-18T12:58:57.258Z,9.47
2022-12-18T13:02:02.820Z,9.32
2022-12-18T13:05:38.327Z,10.25
2022-12-18T13:09:01.613Z,9.87
2022-12-18T13:12:33.317Z,9.65
2022-12-18T13:16:01.277Z,10.18
2022-12-18T13:19:02.873Z,8.98
2022-12-18T13:22:04.464Z,10.02
2022-12-18T13:25:30.798Z,9.63
2022-12-18T13:28:41.131Z,9.43
2022-12-18T13:31:42.834Z,10.00
2022-12-18T13:34:45.250Z,9.57
2022-12-18T13:37:53.576Z,9.82
2022-12-18T13:40:57.040Z,10.13
2022-12-18T13:44:30.848Z,9.77
2022-12-18T13:47:36.182Z,11.40
2022-12-18T13:50:37.816Z,10.68
2022-12-18T13:53:43.393Z,10.20
2022-12-18T13:56:47.499Z,9.57
2022-12-18T13:59:49.764Z,8.98
2022-12-18T14:02:52.841Z,10.17
2022-12-18T14:06:02.290Z,9.48
2022-12-18T14:09:04.433Z,8.77
2022-12-18T14:12:25.229Z,10.97
2022-12-18T14:15:34.704Z,10.63
2022-12-18T14:18:39.763Z,9.65
2022-12-18T14:21:41.671Z,10.65
2022-12-18T14:24:43.262Z,12.30
2022-12-18T14:28:09.342Z,9.93
2022-12-18T14:31:21.487Z,11.30
2022-12-18T14:34:27.844Z,9.83
2022-12-18T14:37:29.399Z,12.40
2022-12-18T14:40:31.000Z,10.02
2022-12-18T14:43:35.297Z,9.63
2022-12-18T14:46:39.318Z,8.60
2022-12-18T14:49:43.474Z,10.52
2022-12-18T14:52:45.016Z,8.93
2022-12-18T14:55:49.119Z,9.52
2022-12-18T14:58:55.281Z,9.80
2022-12-18T15:02:02.780Z,10.80
2022-12-18T15:05:18.848Z,13.60
2022-12-18T15:08:37.016Z,12.13
2022-12-18T15:11:41.346Z,10.70
2022-12-18T15:14:43.102Z,11.73
2022-12-18T15:17:44.712Z,10.35
2022-12-18T15:20:53.589Z,17.55
2022-12-18T15:23:56.536Z,13.23
2022-12-18T15:26:59.153Z,9.95
2022-12-18T15:30:22.391Z,10.48
2022-12-18T15:33:31.613Z,10.10
2022-12-18T15:36:37.253Z,11.37
2022-12-18T15:39:38.791Z,9.85
2022-12-18T15:42:59.238Z,8.80
2022-12-18T15:46:06.258Z,9.93
2022-12-18T15:49:08.962Z,10.82
2022-12-18T15:52:14.212Z,10.48
2022-12-18T15:55:38.201Z,8.63
2022-12-18T15:58:40.294Z,9.18
2022-12-18T16:01:44.446Z,9.98
2022-12-18T16:04:49.021Z,8.88
2022-12-18T16:07:50.573Z,10.33
2022-12-18T16:10:52.128Z,9.38
2022-12-18T16:13:53.960Z,8.55
2022-12-18T16:17:01.386Z,9.40
2022-12-18T16:20:03.336Z,8.13
2022-12-18T16:23:05.097Z,9.65
2022-12-18T16:26:06.724Z,10.38
2022-12-18T16:29:08.542Z,10.25
2022-12-18T16:32:15.846Z,9.32
2022-12-18T16:35:17.541Z,9.52
2022-12-18T16:38:19.258Z,10.10
2022-12-18T16:41:33.019Z,11.27
2022-12-18T16:44:35.045Z,10.15
2022-12-18T16:47:38.325Z,9.40
2022-12-18T16:50:39.952Z,9.20
2022-12-18T16:53:41.948Z,10.40
2022-12-18T16:56:44.260Z,10.32
2022-12-18T16:59:46.736Z,10.00
2022-12-18T17:02:48.469Z,10.18
2022-12-18T17:05:53.048Z,10.32
2022-12-18T17:08:59.425Z,10.90
2022-12-18T17:12:04.182Z,10.82
2022-12-18T17:15:06.628Z,9.80
2022-12-18T17:18:08.342Z,10.03
2022-12-18T17:21:11.117Z,10.25
2022-12-18T17:24:12.826Z,11.43
2022-12-18T17:27:15.044Z,11.45
2022-12-18T17:30:16.706Z,10.10
2022-12-18T17:33:18.533Z,10.43
2022-12-18T17:36:21.291Z,11.02
2022-12-18T17:39:22.919Z,10.27
2022-12-18T17:42:26.522Z,10.50
2022-12-18T17:45:28.229Z,9.85
2022-12-18T17:48:30.428Z,10.07
2022-12-18T17:51:32.277Z,9.57
2022-12-18T17:54:33.829Z,11.02
2022-12-18T17:57:37.013Z,16.40
2022-12-18T18:00:39.259Z,11.55
2022-12-18T18:03:41.534Z,11.00
2022-12-18T18:06:43.650Z,10.82
2022-12-18T18:09:45.225Z,10.80
2022-12-18T18:13:05.308Z,10.68
2022-12-18T18:16:07.733Z,10.20
2022-12-18T18:19:11.688Z,9.63
2022-12-18T18:22:13.818Z,11.75
2022-12-18T18:25:15.771Z,9.77
2022-12-18T18:28:21.092Z,11.50
2022-12-18T18:31:25.638Z,11.52
2022-12-18T18:34:30.302Z,9.95
2022-12-18T18:37:31.888Z,10.80
2022-12-18T18:40:33.403Z,10.67
2022-12-18T18:43:35.375Z,11.00
2022-12-18T18:46:37.044Z,11.02
2022-12-18T18:49:38.592Z,9.60
2022-12-18T18:52:40.152Z,11.57
2022-12-18T18:55:43.539Z,11.20
2022-12-18T18:58:45.142Z,9.88
2022-12-18T19:01:47.084Z,11.35
2022-12-18T19:04:48.664Z,11.90
2022-12-18T19:07:50.188Z,11.73
2022-12-18T19:10:57.693Z,12.23
2022-12-18T19:14:00.479Z,11.85
2022-12-18T19:17:02.117Z,12.02
2022-12-18T19:20:05.117Z,11.80
2022-12-18T19:23:06.665Z,11.73
2022-12-18T19:26:27.835Z,11.65
2022-12-18T19:29:30.551Z,10.68
2022-12-18T19:32:32.240Z,11.77
2022-12-18T19:35:34.486Z,10.90
2022-12-18T19:38:36.186Z,12.18
2022-12-18T19:41:38.115Z,11.47
2022-12-18T19:44:39.997Z,11.70
2022-12-18T19:47:41.562Z,12.52
2022-12-18T19:50:43.209Z,13.30
2022-12-18T19:53:45.901Z,11.77
2022-12-18T19:56:47.618Z,12.13
2022-12-18T19:59:49.320Z,12.07
2022-12-18T20:02:51.010Z,11.27
2022-12-18T20:05:52.655Z,11.55
2022-12-18T20:08:58.210Z,11.73
2022-12-18T20:12:03.223Z,11.30
2022-12-18T20:15:05.098Z,11.05
2022-12-18T20:18:07.247Z,11.93
2022-12-18T20:21:13.697Z,11.10
2022-12-18T20:24:15.683Z,11.68
2022-12-18T20:27:19.555Z,12.77
2022-12-18T20:30:21.436Z,12.05
2022-12-18T20:33:23.012Z,11.57
2022-12-18T20:36:27.038Z,11.80
2022-12-18T20:39:31.136Z,11.68
2022-12-18T20:42:32.982Z,11.27
2022-12-18T20:45:34.645Z,11.38
2022-12-18T20:48:37.322Z,12.48
2022-12-18T20:51:40.157Z,12.30
2022-12-18T20:54:41.824Z,11.88
2022-12-18T20:57:43.502Z,12.07
2022-12-18T21:00:45.088Z,12.68
2022-12-18T21:03:47.344Z,11.70
2022-12-18T21:06:54.078Z,11.65
2022-12-18T21:10:02.207Z,11.88
2022-12-18T21:13:06.021Z,12.37
2022-12-18T21:16:08.795Z,11.10
2022-12-18T21:19:14.883Z,11.75
2022-12-18T21:22:16.629Z,11.87
2022-12-18T21:25:18.330Z,12.95
2022-12-18T21:28:19.953Z,13.23
2022-12-18T21:31:23.684Z,13.50
2022-12-18T21:34:28.171Z,13.93
2022-12-18T21:37:29.744Z,14.35
2022-12-18T21:40:31.287Z,13.65
2022-12-18T21:43:51.669Z,12.07
2022-12-18T21:46:58.969Z,12.18
2022-12-18T21:50:05.609Z,13.05
2022-12-18T21:53:07.151Z,12.83
2022-12-18T21:56:09.570Z,11.90
2022-12-18T21:59:15.308Z,13.50
2022-12-18T22:02:20.621Z,13.10
2022-12-18T22:05:23.265Z,12.45
2022-12-18T22:08:25.016Z,14.02
2022-12-18T22:11:26.533Z,11.75
2022-12-18T22:14:28.455Z,11.63
2022-12-18T22:17:30.318Z,11.30
2022-12-18T22:20:32.789Z,12.52
2022-12-18T22:23:34.364Z,13.40
2022-12-18T22:26:40.106Z,12.40
2022-12-18T22:30:00.556Z,12.82
2022-12-18T22:33:02.309Z,13.60
2022-12-18T22:36:07.747Z,12.70
2022-12-18T22:39:13.817Z,14.23
2022-12-18T22:42:15.362Z,12.80
2022-12-18T22:45:17.184Z,13.60
2022-12-18T22:48:18.834Z,13.45
2022-12-18T22:51:21.236Z,13.98
2022-12-18T22:54:23.451Z,13.00
2022-12-18T22:57:25.174Z,12.60
2022-12-18T23:00:26.770Z,12.57
2022-12-18T23:03:28.460Z,13.23
2022-12-18T23:06:30.130Z,13.35
2022-12-18T23:09:32.515Z,13.88
2022-12-18T23:12:34.146Z,12.40
2022-12-18T23:15:42.638Z,13.53
2022-12-18T23:18:44.863Z,12.38
2022-12-18T23:21:46.424Z,13.65
2022-12-18T23:24:48.531Z,12.37
2022-12-18T23:27:50.386Z,13.95
2022-12-18T23:30:51.945Z,14.80
2022-12-18T23:33:55.783Z,13.75
2022-12-18T23:36:58.037Z,13.25
2022-12-18T23:39:59.584Z,13.15
2022-12-18T23:43:01.197Z,13.13
2022-12-18T23:46:03.542Z,12.80
2022-12-18T23:49:06.549Z,13.25
2022-12-18T23:52:08.224Z,13.05
2022-12-18T23:55:09.863Z,14.47
2022-12-18T23:58:21.421Z,14.90
